createdAt,value
2022-08-22T00:00:54.434Z,100309.22
2022-08-22T00:02:42.863Z,100251.41
2022-08-22T00:02:47.663Z,100180.28
2022-08-22T00:03:04.492Z,100196.81
2022-08-22T00:03:06.413Z,100313.09
2022-08-22T00:03:51.376Z,100305.91
2022-08-22T00:06:21.718Z,100315.31
2022-08-22T00:09:02.965Z,100304.84
2022-08-22T00:11:45.377Z,100310.06
2022-08-22T00:14:41.144Z,100300.13
2022-08-22T00:17:27.886Z,100297.38
2022-08-22T00:20:18.625Z,100295.75
2022-08-22T00:22:51.102Z,100304.03
2022-08-22T00:26:02.458Z,100294.94
2022-08-22T00:28:56.412Z,100299.31
2022-08-22T00:31:35.855Z,100297.69
2022-08-22T00:34:26.389Z,100300.44
2022-08-22T00:36:57.042Z,100295.75
2022-08-22T00:39:31.587Z,100298.50
2022-08-22T00:42:29.436Z,100305.97
2022-08-22T00:45:27.148Z,100299.59
2022-08-22T00:48:23.042Z,100302.34
2022-08-22T00:50:50.855Z,100305.66
2022-08-22T00:53:36.997Z,100294.94
2022-08-22T00:56:26.003Z,100288.59
2022-08-22T00:59:17.939Z,100279.22
2022-08-22T01:01:56.713Z,100283.59
2022-08-22T01:04:51.026Z,100282.78
2022-08-22T01:07:39.931Z,100277.28
2022-08-22T01:10:28.119Z,100280.84
2022-08-22T01:13:01.183Z,100278.41
2022-08-22T01:15:29.579Z,100268.47
2022-08-22T01:18:04.907Z,100269.28
2022-08-22T01:20:49.170Z,100270.13
2022-08-22T01:23:41.167Z,100269.03
2022-08-22T01:26:39.311Z,100271.78
2022-08-22T01:29:28.344Z,100264.63
2022-08-22T01:32:04.954Z,100268.19
2022-08-22T01:34:54.192Z,100265.44
2022-08-22T01:37:43.617Z,100258.28
2022-08-22T01:40:27.364Z,100265.16
2022-08-22T01:43:16.575Z,100256.38
2022-08-22T01:46:20.682Z,100253.63
2022-08-22T01:49:08.024Z,100248.91
2022-08-22T01:51:45.919Z,100248.91
2022-08-22T01:54:31.544Z,100253.31
2022-08-22T01:57:02.395Z,100243.41
2022-08-22T01:59:42.264Z,100250.84
2022-08-22T02:02:22.275Z,100244.22
2022-08-22T02:05:22.436Z,100241.47
2022-08-22T02:07:49.864Z,100254.16
2022-08-22T02:10:48.200Z,100250.00
2022-08-22T02:13:42.867Z,100246.97
2022-08-22T02:16:18.173Z,100247.78
2022-08-22T02:19:24.134Z,100241.75
2022-08-22T02:21:57.639Z,100242.28
2022-08-22T02:24:44.718Z,100241.47
2022-08-22T02:27:16.824Z,100238.72
2022-08-22T02:30:02.032Z,100238.72
2022-08-22T02:32:41.398Z,100239.53
2022-08-22T02:35:29.579Z,100228.50
2022-08-22T02:38:13.358Z,100233.19
2022-08-22T02:41:10.612Z,100218.59
2022-08-22T02:43:49.549Z,100226.59
2022-08-22T02:46:33.865Z,100224.66
2022-08-22T02:49:17.130Z,100221.91
2022-08-22T02:51:50.744Z,100224.38
2022-08-22T02:54:28.292Z,100222.72
2022-08-22T02:57:14.878Z,100221.91
2022-08-22T03:00:01.086Z,100215.56
2022-08-22T03:02:37.039Z,100224.13
2022-08-22T03:05:27.559Z,100219.44
2022-08-22T03:08:09.530Z,100224.13
2022-08-22T03:10:54.706Z,100222.47
2022-08-22T03:13:53.762Z,100222.47
2022-08-22T03:16:45.910Z,100230.72
2022-08-22T03:19:42.500Z,100235.41
2022-08-22T03:22:48.920Z,100233.47
2022-08-22T03:25:22.106Z,100235.13
2022-08-22T03:28:03.879Z,100239.53
2022-08-22T03:30:41.964Z,100237.91
2022-08-22T03:33:20.337Z,100229.91
2022-08-22T03:35:47.678Z,100234.31
2022-08-22T03:38:32.004Z,100227.16
2022-08-22T03:41:20.799Z,100215.84
2022-08-22T03:44:08.403Z,100221.38
2022-08-22T03:47:31.479Z,100224.13
2022-08-22T03:50:36.045Z,100224.94
2022-08-22T03:53:14.468Z,100224.13
2022-08-22T03:56:20.100Z,100226.06
2022-08-22T03:59:31.892Z,100224.94
2022-08-22T04:02:42.977Z,100227.97
2022-08-22T04:05:48.791Z,100227.41
2022-08-22T04:08:43.890Z,100227.41
2022-08-22T04:11:48.803Z,100226.59
2022-08-22T04:14:16.132Z,100231.84
2022-08-22T04:17:18.419Z,100232.38
2022-08-22T04:19:57.813Z,100228.53
2022-08-22T04:22:31.340Z,100229.63
2022-08-22T04:25:07.732Z,100231.84
2022-08-22T04:27:52.059Z,100235.66
2022-08-22T04:30:35.314Z,100232.09
2022-08-22T04:33:21.515Z,100232.09
2022-08-22T04:36:10.277Z,100233.19
2022-08-22T04:38:44.883Z,100228.53
2022-08-22T04:41:33.121Z,100230.44
2022-08-22T04:44:12.118Z,100232.09
2022-08-22T04:46:48.694Z,100228.53
2022-08-22T04:49:35.883Z,100242.31
2022-08-22T04:52:29.867Z,100246.16
2022-08-22T04:55:08.131Z,100238.41
2022-08-22T04:57:54.527Z,100244.50
2022-08-22T05:00:22.157Z,100248.91
2022-08-22T05:02:51.655Z,100249.50
2022-08-22T05:05:25.927Z,100242.84
2022-08-22T05:07:58.546Z,100243.94
2022-08-22T05:10:32.985Z,100251.13
2022-08-22T05:13:09.635Z,100248.09
2022-08-22T05:15:38.652Z,100255.53
2022-08-22T05:18:29.604Z,100256.63
2022-08-22T05:21:01.012Z,100247.28
2022-08-22T05:24:04.293Z,100254.16
2022-08-22T05:26:36.294Z,100253.59
2022-08-22T05:29:05.325Z,100258.28
2022-08-22T05:31:35.147Z,100259.38
2022-08-22T05:34:28.677Z,100266.03
2022-08-22T05:37:08.192Z,100259.38
2022-08-22T05:39:38.840Z,100266.03
2022-08-22T05:42:07.113Z,100261.31
2022-08-22T05:44:36.687Z,100262.41
2022-08-22T05:47:28.133Z,100258.84
2022-08-22T05:50:07.447Z,100256.09
2022-08-22T05:52:59.756Z,100261.59
2022-08-22T05:55:50.756Z,100264.63
2022-08-22T05:58:24.119Z,100258.84
2022-08-22T06:01:23.693Z,100255.56
2022-08-22T06:04:06.993Z,100257.50
2022-08-22T06:06:41.823Z,100266.56
2022-08-22T06:09:18.412Z,100253.91
2022-08-22T06:11:55.769Z,100262.72
2022-08-22T06:14:50.519Z,100266.56
2022-08-22T06:17:20.588Z,100273.75
2022-08-22T06:19:51.989Z,100278.41
2022-08-22T06:22:22.006Z,100271.00
2022-08-22T06:24:49.491Z,100278.41
2022-08-22T06:27:17.150Z,100274.56
2022-08-22T06:29:46.979Z,100287.22
2022-08-22T06:32:16.838Z,100287.22
2022-08-22T06:35:14.064Z,100285.31
2022-08-22T06:37:42.765Z,100279.50
2022-08-22T06:40:10.987Z,100288.88
2022-08-22T06:42:47.263Z,100279.50
2022-08-22T06:45:26.368Z,100284.19
2022-08-22T06:48:06.176Z,100275.91
2022-08-22T06:50:38.895Z,100287.75
2022-08-22T06:53:15.486Z,100288.59
2022-08-22T06:55:56.519Z,100286.13
2022-08-22T06:58:26.188Z,100280.34
2022-08-22T07:01:05.706Z,100272.06
2022-08-22T07:03:49.044Z,100286.66
2022-08-22T07:06:18.458Z,100292.97
2022-08-22T07:08:48.574Z,100289.13
2022-08-22T07:11:28.011Z,100294.34
2022-08-22T07:13:57.834Z,100279.75
2022-08-22T07:16:33.543Z,100285.25
2022-08-22T07:19:01.264Z,100282.50
2022-08-22T07:21:32.575Z,100285.25
2022-08-22T07:24:03.802Z,100287.75
2022-08-22T07:27:01.399Z,100286.06
2022-08-22T07:30:27.618Z,100283.06
2022-08-22T07:33:15.307Z,100284.72
2022-08-22T07:35:53.683Z,100284.72
2022-08-22T07:38:43.902Z,100271.22
2022-08-22T07:41:16.955Z,100273.72
2022-08-22T07:43:57.634Z,100284.72
2022-08-22T07:46:33.893Z,100283.59
2022-08-22T07:49:10.022Z,100273.72
2022-08-22T07:51:54.481Z,100279.22
2022-08-22T07:54:22.949Z,100278.94
2022-08-22T07:57:01.488Z,100279.22
2022-08-22T07:59:29.110Z,100272.59
2022-08-22T08:01:58.831Z,100271.78
2022-08-22T08:04:29.952Z,100274.53
2022-08-22T08:06:59.951Z,100283.59
2022-08-22T08:09:31.023Z,100285.28
2022-08-22T08:11:59.420Z,100282.53
2022-08-22T08:14:27.079Z,100279.75
2022-08-22T08:17:12.262Z,100280.56
2022-08-22T08:19:40.598Z,100280.56
2022-08-22T08:22:07.997Z,100279.47
2022-08-22T08:24:39.927Z,100277.81
2022-08-22T08:27:32.430Z,100289.66
2022-08-22T08:30:16.538Z,100278.94
2022-08-22T08:32:47.848Z,100279.47
2022-08-22T08:35:28.012Z,100273.13
2022-08-22T08:38:14.706Z,100284.16
2022-08-22T08:41:13.573Z,100286.09
2022-08-22T08:44:22.591Z,100280.31
2022-08-22T08:47:20.856Z,100285.00
2022-08-22T08:49:54.795Z,100279.47
2022-08-22T08:53:02.567Z,100286.09
2022-08-22T08:55:51.194Z,100286.09
2022-08-22T08:59:00.319Z,100286.09
2022-08-22T09:02:09.388Z,100277.81
2022-08-22T09:05:05.096Z,100271.50
2022-08-22T09:07:36.059Z,100272.31
2022-08-22T09:10:27.247Z,100275.88
2022-08-22T09:13:12.978Z,100267.06
2022-08-22T09:15:58.521Z,100262.94
2022-08-22T09:18:44.664Z,100262.09
2022-08-22T09:21:30.744Z,100271.22
2022-08-22T09:24:20.599Z,100267.34
2022-08-22T09:26:57.096Z,100250.28
2022-08-22T09:32:42.981Z,100245.56
2022-08-22T09:35:28.251Z,100241.72
2022-08-22T09:38:07.802Z,100238.16
2022-08-22T09:40:16.617Z,100244.75
2022-08-22T09:41:11.088Z,100238.44
2022-08-22T09:43:44.153Z,100237.31
2022-08-22T09:46:31.422Z,100237.31
2022-08-22T09:49:21.896Z,100232.66
2022-08-22T09:52:34.920Z,100235.41
2022-08-22T09:55:15.972Z,100231.53
2022-08-22T09:57:51.716Z,100230.69
2022-08-22T10:00:29.116Z,100230.69
2022-08-22T10:03:18.971Z,100230.69
2022-08-22T10:05:54.990Z,100229.03
2022-08-22T10:08:34.560Z,100230.69
2022-08-22T10:11:23.040Z,100219.69
2022-08-22T10:14:23.320Z,100223.25
2022-08-22T10:17:01.585Z,100217.47
2022-08-22T10:19:38.108Z,100214.97
2022-08-22T10:22:05.598Z,100210.28
2022-08-22T10:24:55.401Z,100218.88
2022-08-22T10:27:38.491Z,100208.66
2022-08-22T10:30:13.256Z,100201.50
2022-08-22T10:33:12.069Z,100199.56
2022-08-22T10:35:43.073Z,100201.75
2022-08-22T10:38:14.317Z,100209.47
2022-08-22T10:40:58.196Z,100203.16
2022-08-22T10:43:41.800Z,100203.97
2022-08-22T10:46:14.583Z,100202.88
2022-08-22T10:48:45.713Z,100203.69
2022-08-22T10:51:34.919Z,100201.22
2022-08-22T10:54:43.778Z,100193.75
2022-08-22T10:57:20.541Z,100189.91
2022-08-22T10:59:57.239Z,100182.75
2022-08-22T11:02:49.510Z,100179.16
2022-08-22T11:05:25.866Z,100178.88
2022-08-22T11:08:06.417Z,100175.59
2022-08-22T11:10:59.679Z,100179.97
2022-08-22T11:13:30.509Z,100176.13
2022-08-22T11:16:00.838Z,100176.13
2022-08-22T11:18:37.538Z,100167.88
2022-08-22T11:21:37.098Z,100171.72
2022-08-22T11:24:46.542Z,100168.97
2022-08-22T11:27:39.506Z,100165.09
2022-08-22T11:30:44.596Z,100167.88
2022-08-22T11:33:51.392Z,100167.88
2022-08-22T11:36:27.467Z,100175.00
2022-08-22T11:39:01.260Z,100169.50
2022-08-22T11:41:35.957Z,100175.31
2022-08-22T11:44:07.963Z,100166.19
2022-08-22T11:46:59.867Z,100167.59
2022-08-22T11:49:33.058Z,100157.94
2022-08-22T11:52:16.355Z,100158.78
2022-08-22T11:55:00.047Z,100151.06
2022-08-22T11:57:36.885Z,100147.44
2022-08-22T12:00:25.702Z,100151.34
2022-08-22T12:02:56.134Z,100146.63
2022-08-22T12:05:34.378Z,100137.84
2022-08-22T12:08:14.583Z,100127.63
2022-08-22T12:10:55.767Z,100126.53
2022-08-22T12:13:49.264Z,100123.50
2022-08-22T12:16:34.154Z,100132.84
2022-08-22T12:19:04.523Z,100132.84
2022-08-22T12:21:36.856Z,100133.66
2022-08-22T12:24:41.162Z,100131.97
2022-08-22T12:27:18.391Z,100125.66
2022-08-22T12:30:27.608Z,100127.06
2022-08-22T12:33:36.321Z,100114.38
2022-08-22T12:36:28.115Z,100119.91
2022-08-22T12:39:24.689Z,100117.44
2022-08-22T12:42:20.516Z,100108.34
2022-08-22T12:45:12.123Z,100117.44
2022-08-22T12:48:14.219Z,100112.75
2022-08-22T12:50:56.474Z,100110.81
2022-08-22T12:53:50.976Z,100117.44
2022-08-22T12:56:47.444Z,100113.56
2022-08-22T12:59:37.438Z,100112.75
2022-08-22T13:02:41.705Z,100110.81
2022-08-22T13:05:20.599Z,100116.31
2022-08-22T13:08:03.763Z,100104.78
2022-08-22T13:10:46.890Z,100103.69
2022-08-22T13:13:29.512Z,100095.09
2022-08-22T13:16:15.532Z,100096.22
2022-08-22T13:18:53.490Z,100106.13
2022-08-22T13:21:31.571Z,100098.16
2022-08-22T13:24:38.945Z,100093.47
2022-08-22T13:27:11.292Z,100093.19
2022-08-22T13:29:46.751Z,100088.78
2022-08-22T13:32:39.796Z,100085.47
2022-08-22T13:35:24.397Z,100080.50
2022-08-22T13:37:55.199Z,100076.94
2022-08-22T13:40:27.223Z,100082.44
2022-08-22T13:43:08.060Z,100068.94
2022-08-22T13:45:36.226Z,100058.75
2022-08-22T13:48:09.312Z,100074.47
2022-08-22T13:51:01.977Z,100072.25
2022-08-22T13:53:58.079Z,100063.97
2022-08-22T13:56:34.805Z,100059.28
2022-08-22T13:59:04.191Z,100057.66
2022-08-22T14:01:56.218Z,100058.75
2022-08-22T14:04:35.964Z,100060.41
2022-08-22T14:07:04.500Z,100051.84
2022-08-22T14:09:55.802Z,100050.47
2022-08-22T14:12:50.929Z,100050.47
2022-08-22T14:15:23.381Z,100053.47
2022-08-22T14:17:52.291Z,100049.91
2022-08-22T14:20:32.092Z,100041.13
2022-08-22T14:23:12.237Z,100047.44
2022-08-22T14:25:42.018Z,100044.41
2022-08-22T14:28:42.408Z,100051.00
2022-08-22T14:31:13.544Z,100046.88
2022-08-22T14:33:46.721Z,100045.50
2022-08-22T14:36:17.138Z,100043.59
2022-08-22T14:38:58.664Z,100047.97
2022-08-22T14:41:52.669Z,100046.03
2022-08-22T14:44:29.243Z,100042.47
2022-08-22T14:47:01.049Z,100040.53
2022-08-22T14:50:09.462Z,100038.06
2022-08-22T14:52:41.731Z,100033.38
2022-08-22T14:55:19.299Z,100038.88
2022-08-22T14:58:03.456Z,100038.88
2022-08-22T15:00:38.743Z,100029.81
2022-08-22T15:03:47.715Z,100035.00
2022-08-22T15:06:29.400Z,100034.19
2022-08-22T15:08:57.078Z,100017.66
2022-08-22T15:11:32.065Z,100022.34
2022-08-22T15:14:12.538Z,100023.16
2022-08-22T15:16:46.531Z,100016.56
2022-08-22T15:19:28.851Z,100018.47
2022-08-22T15:22:25.601Z,100016.84
2022-08-22T15:25:02.292Z,100022.06
2022-08-22T15:27:31.016Z,100011.88
2022-08-22T15:30:20.952Z,100015.72
2022-08-22T15:32:49.124Z,100002.78
2022-08-22T15:35:28.138Z,100003.06
2022-08-22T15:38:01.706Z,100015.44
2022-08-22T15:40:45.566Z,100003.88
2022-08-22T15:43:33.625Z,100005.81
2022-08-22T15:46:20.944Z,100008.28
2022-08-22T15:49:20.791Z,100007.44
2022-08-22T15:52:03.235Z,100010.22
2022-08-22T15:54:46.823Z,100010.22
2022-08-22T15:57:41.874Z,100007.44
2022-08-22T16:00:43.344Z,100008.28
2022-08-22T16:03:14.628Z,100009.09
2022-08-22T16:05:55.383Z,100007.44
2022-08-22T16:08:24.719Z,100000.03
2022-08-22T16:11:01.935Z,100007.44
2022-08-22T16:13:33.614Z,100005.53
2022-08-22T16:16:13.103Z,100014.09
2022-08-22T16:18:40.550Z,100006.63
2022-08-22T16:21:10.952Z,100003.88
2022-08-22T16:24:00.787Z,100006.63
2022-08-22T16:26:30.831Z,100008.28
2022-08-22T16:29:07.514Z,100012.16
2022-08-22T16:31:44.027Z,100011.06
2022-08-22T16:34:17.206Z,100017.38
2022-08-22T16:37:08.088Z,100012.16
2022-08-22T16:39:45.799Z,100020.41
2022-08-22T16:42:14.062Z,100022.88
2022-08-22T16:44:48.305Z,100020.13
2022-08-22T16:47:21.714Z,100029.50
2022-08-22T16:49:49.066Z,100024.50
2022-08-22T16:52:25.962Z,100024.81
2022-08-22T16:54:57.731Z,100027.28
2022-08-22T16:57:59.326Z,100034.72
2022-08-22T17:00:45.751Z,100029.22
2022-08-22T17:03:26.720Z,100031.16
2022-08-22T17:06:23.207Z,100033.09
2022-08-22T17:09:09.610Z,100025.13
2022-08-22T17:12:00.340Z,100031.16
2022-08-22T17:14:27.683Z,100031.16
2022-08-22T17:17:07.080Z,100024.00
2022-08-22T17:19:49.412Z,100025.66
2022-08-22T17:22:16.933Z,100024.81
2022-08-22T17:24:59.123Z,100025.94
2022-08-22T17:27:37.138Z,100025.94
2022-08-22T17:30:28.695Z,100020.41
2022-08-22T17:33:35.383Z,100021.22
2022-08-22T17:36:26.543Z,100028.41
2022-08-22T17:39:22.608Z,100021.53
2022-08-22T17:42:10.261Z,100028.69
2022-08-22T17:45:07.937Z,100033.38
2022-08-22T17:47:52.765Z,100036.94
2022-08-22T17:50:42.154Z,100033.38
2022-08-22T17:53:31.666Z,100038.88
2022-08-22T17:56:39.380Z,100044.41
2022-08-22T17:59:12.047Z,100041.38
2022-08-22T18:01:56.058Z,100052.66
2022-08-22T18:04:43.283Z,100052.66
2022-08-22T18:07:16.974Z,100055.44
2022-08-22T18:09:54.623Z,100059.28
2022-08-22T18:12:40.086Z,100076.66
2022-08-22T18:15:49.559Z,100075.81
2022-08-22T18:18:41.260Z,100080.22
2022-08-22T18:21:12.119Z,100086.53
2022-08-22T18:23:43.067Z,100086.00
2022-08-22T18:26:31.260Z,100080.50
2022-08-22T18:29:12.102Z,100086.84
2022-08-22T18:32:01.809Z,100094.28
2022-08-22T18:34:31.757Z,100091.25
2022-08-22T18:37:17.156Z,100091.25
2022-08-22T18:39:52.555Z,100102.56
2022-08-22T18:42:33.506Z,100106.13
2022-08-22T18:45:00.892Z,100113.28
2022-08-22T18:47:32.721Z,100112.47
2022-08-22T18:50:02.142Z,100117.97
2022-08-22T18:52:36.073Z,100117.97
2022-08-22T18:55:12.620Z,100119.91
2022-08-22T18:57:54.187Z,100129.28
2022-08-22T19:00:46.622Z,100129.28
2022-08-22T19:03:13.998Z,100131.44
2022-08-22T19:05:51.596Z,100136.44
2022-08-22T19:08:41.827Z,100141.66
2022-08-22T19:11:39.739Z,100145.81
2022-08-22T19:14:46.554Z,100143.88
2022-08-22T19:17:35.247Z,100147.44
2022-08-22T19:20:54.095Z,100151.34
2022-08-22T19:23:37.428Z,100151.34
2022-08-22T19:26:28.705Z,100156.03
2022-08-22T19:29:21.397Z,100160.69
2022-08-22T19:31:52.419Z,100161.53
2022-08-22T19:34:22.704Z,100156.03
2022-08-22T19:37:32.016Z,100166.50
2022-08-22T19:40:02.991Z,100173.38
2022-08-22T19:42:34.580Z,100176.94
2022-08-22T19:45:08.348Z,100175.59
2022-08-22T19:47:37.966Z,100174.47
2022-08-22T19:50:15.887Z,100172.84
2022-08-22T19:52:52.332Z,100177.22
2022-08-22T19:55:22.975Z,100181.09
2022-08-22T19:57:55.235Z,100191.00
2022-08-22T20:00:53.198Z,100181.38
2022-08-22T20:03:34.907Z,100190.47
2022-08-22T20:06:21.962Z,100189.38
2022-08-22T20:09:27.577Z,100194.88
2022-08-22T20:12:15.863Z,100196.81
2022-08-22T20:14:44.609Z,100193.22
2022-08-22T20:17:24.259Z,100197.38
2022-08-22T20:22:45.023Z,100205.38
2022-08-22T20:25:42.147Z,100209.22
2022-08-22T20:28:26.402Z,100212.81
2022-08-22T20:30:57.611Z,100217.47
2022-08-22T20:33:39.685Z,100214.72
2022-08-22T20:36:27.164Z,100211.16
2022-08-22T20:39:00.250Z,100219.16
2022-08-22T20:41:32.962Z,100224.94
2022-08-22T20:44:12.434Z,100234.00
2022-08-22T20:46:46.273Z,100231.25
2022-08-22T20:49:19.123Z,100226.88
2022-08-22T20:51:54.232Z,100229.63
2022-08-22T20:54:24.194Z,100228.50
2022-08-22T20:56:54.516Z,100235.94
2022-08-22T20:59:36.925Z,100238.72
2022-08-22T21:02:10.140Z,100233.19
2022-08-22T21:04:48.803Z,100238.72
2022-08-22T21:07:38.707Z,100235.13
2022-08-22T21:10:38.319Z,100245.03
2022-08-22T21:13:13.094Z,100240.66
2022-08-22T21:15:46.571Z,100253.63
2022-08-22T21:18:23.812Z,100246.97
2022-08-22T21:20:51.279Z,100246.16
2022-08-22T21:23:19.531Z,100247.50
2022-08-22T21:25:56.477Z,100246.44
2022-08-22T21:28:35.928Z,100245.63
2022-08-22T21:31:12.260Z,100252.19
2022-08-22T21:33:41.614Z,100259.41
2022-08-22T21:36:09.799Z,100243.94
2022-08-22T21:38:37.395Z,100247.50
2022-08-22T21:41:05.517Z,100256.66
2022-08-22T21:43:36.803Z,100263.22
2022-08-22T21:46:05.366Z,100264.03
2022-08-22T21:48:33.945Z,100258.53
2022-08-22T21:51:24.105Z,100259.66
2022-08-22T21:53:56.040Z,100255.75
2022-08-22T21:56:38.988Z,100261.03
2022-08-22T21:59:52.068Z,100268.72
2022-08-22T22:02:36.817Z,100270.41
2022-08-22T22:05:11.459Z,100267.91
2022-08-22T22:07:43.999Z,100274.25
2022-08-22T22:10:13.658Z,100272.28
2022-08-22T22:12:41.923Z,100279.75
2022-08-22T22:15:11.448Z,100278.94
2022-08-22T22:17:41.693Z,100278.13
2022-08-22T22:20:09.577Z,100280.03
2022-08-22T22:22:45.759Z,100285.25
2022-08-22T22:25:39.078Z,100288.28
2022-08-22T22:28:03.988Z,100293.53
2022-08-22T22:30:31.452Z,100292.72
2022-08-22T22:32:58.969Z,100298.22
2022-08-22T22:35:26.446Z,100299.31
2022-08-22T22:37:55.139Z,100299.31
2022-08-22T22:40:24.149Z,100298.22
2022-08-22T22:42:51.644Z,100296.28
2022-08-22T22:45:19.083Z,100302.59
2022-08-22T22:47:46.576Z,100312.00
2022-08-22T22:50:14.067Z,100308.13
2022-08-22T22:52:41.478Z,100304.53
2022-08-22T22:55:09.410Z,100312.81
2022-08-22T22:57:41.460Z,100304.53
2022-08-22T23:00:14.852Z,100310.88
2022-08-22T23:02:42.751Z,100308.13
2022-08-22T23:05:10.593Z,100310.06
2022-08-22T23:07:38.477Z,100308.13
2022-08-22T23:10:07.145Z,100306.47
2022-08-22T23:12:35.574Z,100320.25
2022-08-22T23:15:04.404Z,100312.00
2022-08-22T23:17:31.855Z,100311.19
2022-08-22T23:19:59.468Z,100312.28
2022-08-22T23:22:26.949Z,100311.44
2022-08-22T23:24:54.379Z,100313.94
2022-08-22T23:27:22.074Z,100315.84
2022-08-22T23:29:49.521Z,100313.94
2022-08-22T23:32:17.124Z,100310.31
2022-08-22T23:34:46.104Z,100312.81
2022-08-22T23:37:15.422Z,100313.63
2022-08-22T23:39:43.089Z,100306.47
2022-08-22T23:42:10.619Z,100313.94
2022-08-22T23:44:38.859Z,100310.31
2022-08-22T23:47:06.703Z,100304.81
2022-08-22T23:49:34.258Z,100311.19
2022-08-22T23:52:01.763Z,100309.50
2022-08-22T23:54:29.272Z,100308.69
2022-08-22T23:56:59.697Z,100312.28
2022-08-22T23:59:30.616Z,100307.88
